sensor_id;sensor_type;location;lat;lon;timestamp;temperature;humidity
47606;DHT22;55448;51.330;4.946;2022-07-29T00:00:00;19.80;82.60
47606;DHT22;55448;51.330;4.946;2022-07-29T00:02:26;19.80;83.80
47606;DHT22;55448;51.330;4.946;2022-07-29T00:04:52;19.40;81.80
47606;DHT22;55448;51.330;4.946;2022-07-29T00:07:18;19.00;84.30
47606;DHT22;55448;51.330;4.946;2022-07-29T00:09:44;19.00;83.90
47606;DHT22;55448;51.330;4.946;2022-07-29T00:12:10;18.60;87.90
47606;DHT22;55448;51.330;4.946;2022-07-29T00:14:35;18.30;89.30
47606;DHT22;55448;51.330;4.946;2022-07-29T00:17:01;18.30;86.10
47606;DHT22;55448;51.330;4.946;2022-07-29T00:19:27;18.40;87.20
47606;DHT22;55448;51.330;4.946;2022-07-29T00:21:52;18.40;88.70
47606;DHT22;55448;51.330;4.946;2022-07-29T00:24:18;18.20;90.20
47606;DHT22;55448;51.330;4.946;2022-07-29T00:26:44;18.30;90.60
47606;DHT22;55448;51.330;4.946;2022-07-29T00:29:09;18.20;92.20
47606;DHT22;55448;51.330;4.946;2022-07-29T00:31:35;18.00;92.90
47606;DHT22;55448;51.330;4.946;2022-07-29T00:34:01;17.50;94.30
47606;DHT22;55448;51.330;4.946;2022-07-29T00:36:27;17.30;95.00
47606;DHT22;55448;51.330;4.946;2022-07-29T00:38:53;17.10;96.80
47606;DHT22;55448;51.330;4.946;2022-07-29T00:41:19;17.00;98.00
47606;DHT22;55448;51.330;4.946;2022-07-29T00:43:45;16.80;99.60
47606;DHT22;55448;51.330;4.946;2022-07-29T00:46:11;16.80;99.90
47606;DHT22;55448;51.330;4.946;2022-07-29T00:48:37;16.70;99.90
47606;DHT22;55448;51.330;4.946;2022-07-29T00:51:04;16.70;99.90
47606;DHT22;55448;51.330;4.946;2022-07-29T00:53:30;16.60;99.90
47606;DHT22;55448;51.330;4.946;2022-07-29T00:55:57;16.50;99.90
47606;DHT22;55448;51.330;4.946;2022-07-29T00:58:23;16.40;99.90
47606;DHT22;55448;51.330;4.946;2022-07-29T01:00:49;16.40;99.90
47606;DHT22;55448;51.330;4.946;2022-07-29T01:03:15;16.40;99.90
47606;DHT22;55448;51.330;4.946;2022-07-29T01:05:43;16.40;99.90
47606;DHT22;55448;51.330;4.946;2022-07-29T01:08:12;16.40;99.90
47606;DHT22;55448;51.330;4.946;2022-07-29T01:10:38;16.30;99.90
47606;DHT22;55448;51.330;4.946;2022-07-29T01:13:05;16.20;99.90
47606;DHT22;55448;51.330;4.946;2022-07-29T01:15:31;16.20;99.90
47606;DHT22;55448;51.330;4.946;2022-07-29T01:18:10;16.20;99.90
47606;DHT22;55448;51.330;4.946;2022-07-29T01:31:39;16.40;99.90
47606;DHT22;55448;51.330;4.946;2022-07-29T01:34:08;16.50;99.90
47606;DHT22;55448;51.330;4.946;2022-07-29T01:36:50;16.50;99.90
47606;DHT22;55448;51.330;4.946;2022-07-29T01:39:26;16.30;99.90
47606;DHT22;55448;51.330;4.946;2022-07-29T01:42:20;16.30;99.90
47606;DHT22;55448;51.330;4.946;2022-07-29T01:47:25;16.30;99.90
47606;DHT22;55448;51.330;4.946;2022-07-29T01:49:54;16.30;99.90
47606;DHT22;55448;51.330;4.946;2022-07-29T01:52:37;16.30;99.90
47606;DHT22;55448;51.330;4.946;2022-07-29T01:55:11;16.30;99.90
47606;DHT22;55448;51.330;4.946;2022-07-29T01:57:40;16.30;99.90
47606;DHT22;55448;51.330;4.946;2022-07-29T02:00:08;16.40;99.90
47606;DHT22;55448;51.330;4.946;2022-07-29T02:02:35;16.30;99.90
47606;DHT22;55448;51.330;4.946;2022-07-29T02:05:03;16.30;99.90
47606;DHT22;55448;51.330;4.946;2022-07-29T02:07:31;16.40;99.90
47606;DHT22;55448;51.330;4.946;2022-07-29T02:09:59;16.40;99.90
47606;DHT22;55448;51.330;4.946;2022-07-29T02:12:26;16.40;99.90
47606;DHT22;55448;51.330;4.946;2022-07-29T02:14:54;16.50;99.90
47606;DHT22;55448;51.330;4.946;2022-07-29T02:17:26;16.40;99.90
47606;DHT22;55448;51.330;4.946;2022-07-29T02:19:56;16.50;99.90
47606;DHT22;55448;51.330;4.946;2022-07-29T02:22:23;16.50;99.90
47606;DHT22;55448;51.330;4.946;2022-07-29T02:24:51;16.50;99.90
47606;DHT22;55448;51.330;4.946;2022-07-29T02:27:19;16.60;99.90
47606;DHT22;55448;51.330;4.946;2022-07-29T02:29:46;16.60;99.90
47606;DHT22;55448;51.330;4.946;2022-07-29T02:32:13;16.50;99.90
47606;DHT22;55448;51.330;4.946;2022-07-29T02:34:41;16.40;99.90
47606;DHT22;55448;51.330;4.946;2022-07-29T02:37:11;16.40;99.90
47606;DHT22;55448;51.330;4.946;2022-07-29T02:39:41;16.40;99.90
47606;DHT22;55448;51.330;4.946;2022-07-29T02:42:09;16.60;99.90
47606;DHT22;55448;51.330;4.946;2022-07-29T02:44:36;16.60;99.90
47606;DHT22;55448;51.330;4.946;2022-07-29T02:52:24;16.40;99.90
47606;DHT22;55448;51.330;4.946;2022-07-29T02:55:25;16.50;99.90
47606;DHT22;55448;51.330;4.946;2022-07-29T02:57:59;16.50;99.90
47606;DHT22;55448;51.330;4.946;2022-07-29T03:00:28;16.50;99.90
47606;DHT22;55448;51.330;4.946;2022-07-29T03:02:58;16.50;99.90
47606;DHT22;55448;51.330;4.946;2022-07-29T03:05:25;16.60;99.90
47606;DHT22;55448;51.330;4.946;2022-07-29T03:07:55;16.60;99.90
47606;DHT22;55448;51.330;4.946;2022-07-29T03:10:23;16.70;99.90
47606;DHT22;55448;51.330;4.946;2022-07-29T03:12:50;16.60;99.90
47606;DHT22;55448;51.330;4.946;2022-07-29T03:15:16;16.50;99.90
47606;DHT22;55448;51.330;4.946;2022-07-29T03:17:43;16.60;99.90
47606;DHT22;55448;51.330;4.946;2022-07-29T03:20:10;16.50;99.90
47606;DHT22;55448;51.330;4.946;2022-07-29T03:22:40;16.40;99.90
47606;DHT22;55448;51.330;4.946;2022-07-29T03:25:16;16.50;99.90
47606;DHT22;55448;51.330;4.946;2022-07-29T03:27:43;16.50;99.90
47606;DHT22;55448;51.330;4.946;2022-07-29T03:30:09;16.40;99.90
47606;DHT22;55448;51.330;4.946;2022-07-29T03:32:36;16.30;99.90
47606;DHT22;55448;51.330;4.946;2022-07-29T03:35:02;16.30;99.90
47606;DHT22;55448;51.330;4.946;2022-07-29T03:37:28;16.30;99.90
47606;DHT22;55448;51.330;4.946;2022-07-29T03:39:57;16.70;99.90
47606;DHT22;55448;51.330;4.946;2022-07-29T03:42:25;16.80;99.90
47606;DHT22;55448;51.330;4.946;2022-07-29T03:44:53;16.80;99.90
47606;DHT22;55448;51.330;4.946;2022-07-29T03:47:22;17.10;99.90
47606;DHT22;55448;51.330;4.946;2022-07-29T03:49:50;16.90;99.90
47606;DHT22;55448;51.330;4.946;2022-07-29T03:52:17;16.90;99.90
47606;DHT22;55448;51.330;4.946;2022-07-29T03:54:43;16.90;99.90
47606;DHT22;55448;51.330;4.946;2022-07-29T03:57:11;17.10;99.90
47606;DHT22;55448;51.330;4.946;2022-07-29T03:59:37;17.20;99.90
47606;DHT22;55448;51.330;4.946;2022-07-29T04:02:04;16.90;99.90
47606;DHT22;55448;51.330;4.946;2022-07-29T04:04:34;16.90;99.90
47606;DHT22;55448;51.330;4.946;2022-07-29T04:07:00;17.30;99.90
47606;DHT22;55448;51.330;4.946;2022-07-29T04:09:26;17.40;99.90
47606;DHT22;55448;51.330;4.946;2022-07-29T04:11:51;17.20;99.90
47606;DHT22;55448;51.330;4.946;2022-07-29T04:14:18;17.00;99.90
47606;DHT22;55448;51.330;4.946;2022-07-29T04:16:44;16.70;99.90
47606;DHT22;55448;51.330;4.946;2022-07-29T04:19:09;16.50;99.90
47606;DHT22;55448;51.330;4.946;2022-07-29T04:21:39;16.30;99.90
47606;DHT22;55448;51.330;4.946;2022-07-29T04:24:06;16.30;99.90
47606;DHT22;55448;51.330;4.946;2022-07-29T04:26:32;16.30;99.90
47606;DHT22;55448;51.330;4.946;2022-07-29T04:28:57;16.30;99.90
47606;DHT22;55448;51.330;4.946;2022-07-29T04:31:23;16.30;99.90
47606;DHT22;55448;51.330;4.946;2022-07-29T04:33:49;16.30;99.90
47606;DHT22;55448;51.330;4.946;2022-07-29T04:36:14;16.20;99.90
47606;DHT22;55448;51.330;4.946;2022-07-29T04:38:40;16.10;99.90
47606;DHT22;55448;51.330;4.946;2022-07-29T04:41:06;16.00;99.90
47606;DHT22;55448;51.330;4.946;2022-07-29T04:43:33;15.90;99.90
47606;DHT22;55448;51.330;4.946;2022-07-29T04:45:59;15.90;99.90
47606;DHT22;55448;51.330;4.946;2022-07-29T04:48:25;15.90;99.90
47606;DHT22;55448;51.330;4.946;2022-07-29T04:50:51;16.10;99.90
47606;DHT22;55448;51.330;4.946;2022-07-29T04:53:17;16.30;99.90
47606;DHT22;55448;51.330;4.946;2022-07-29T04:55:43;16.30;99.90
47606;DHT22;55448;51.330;4.946;2022-07-29T04:58:10;16.30;99.90
47606;DHT22;55448;51.330;4.946;2022-07-29T05:00:36;16.40;99.90
47606;DHT22;55448;51.330;4.946;2022-07-29T05:03:02;16.30;99.90
47606;DHT22;55448;51.330;4.946;2022-07-29T05:05:27;16.30;99.90
47606;DHT22;55448;51.330;4.946;2022-07-29T05:07:53;16.10;99.90
47606;DHT22;55448;51.330;4.946;2022-07-29T05:10:19;16.00;99.90
47606;DHT22;55448;51.330;4.946;2022-07-29T05:12:45;16.00;99.90
47606;DHT22;55448;51.330;4.946;2022-07-29T05:15:10;16.00;99.90
47606;DHT22;55448;51.330;4.946;2022-07-29T05:17:36;16.10;99.90
47606;DHT22;55448;51.330;4.946;2022-07-29T05:20:03;16.30;99.90
47606;DHT22;55448;51.330;4.946;2022-07-29T05:22:29;16.60;99.90
47606;DHT22;55448;51.330;4.946;2022-07-29T05:24:54;16.50;99.90
47606;DHT22;55448;51.330;4.946;2022-07-29T05:27:20;16.40;99.90
47606;DHT22;55448;51.330;4.946;2022-07-29T05:29:46;16.40;99.90
47606;DHT22;55448;51.330;4.946;2022-07-29T05:32:12;16.40;99.90
47606;DHT22;55448;51.330;4.946;2022-07-29T05:34:38;16.10;99.90
47606;DHT22;55448;51.330;4.946;2022-07-29T05:37:04;16.00;99.90
47606;DHT22;55448;51.330;4.946;2022-07-29T05:39:30;15.90;99.90
47606;DHT22;55448;51.330;4.946;2022-07-29T05:41:56;15.90;99.90
47606;DHT22;55448;51.330;4.946;2022-07-29T05:44:21;16.00;99.90
47606;DHT22;55448;51.330;4.946;2022-07-29T05:46:47;16.20;99.90
47606;DHT22;55448;51.330;4.946;2022-07-29T05:49:13;16.10;99.90
47606;DHT22;55448;51.330;4.946;2022-07-29T05:51:38;16.00;99.90
47606;DHT22;55448;51.330;4.946;2022-07-29T05:54:04;16.20;99.90
47606;DHT22;55448;51.330;4.946;2022-07-29T05:56:30;16.20;99.90
47606;DHT22;55448;51.330;4.946;2022-07-29T05:58:56;16.10;99.90
47606;DHT22;55448;51.330;4.946;2022-07-29T06:01:21;16.30;99.90
47606;DHT22;55448;51.330;4.946;2022-07-29T06:03:47;16.50;99.90
47606;DHT22;55448;51.330;4.946;2022-07-29T06:06:12;16.40;99.90
47606;DHT22;55448;51.330;4.946;2022-07-29T06:08:38;16.20;99.90
47606;DHT22;55448;51.330;4.946;2022-07-29T06:11:05;16.00;99.90
47606;DHT22;55448;51.330;4.946;2022-07-29T06:13:31;15.90;99.90
47606;DHT22;55448;51.330;4.946;2022-07-29T06:15:57;15.90;99.90
47606;DHT22;55448;51.330;4.946;2022-07-29T06:18:23;16.00;99.90
47606;DHT22;55448;51.330;4.946;2022-07-29T06:20:51;16.10;99.90
47606;DHT22;55448;51.330;4.946;2022-07-29T06:23:18;16.20;99.90
47606;DHT22;55448;51.330;4.946;2022-07-29T06:25:44;16.40;99.90
47606;DHT22;55448;51.330;4.946;2022-07-29T06:28:10;16.50;99.90
47606;DHT22;55448;51.330;4.946;2022-07-29T06:30:35;16.70;99.90
47606;DHT22;55448;51.330;4.946;2022-07-29T06:33:01;16.50;99.90
47606;DHT22;55448;51.330;4.946;2022-07-29T06:35:27;16.60;99.90
47606;DHT22;55448;51.330;4.946;2022-07-29T06:37:53;16.70;99.90
47606;DHT22;55448;51.330;4.946;2022-07-29T06:40:19;16.70;99.90
47606;DHT22;55448;51.330;4.946;2022-07-29T06:43:03;16.80;99.90
47606;DHT22;55448;51.330;4.946;2022-07-29T06:45:29;16.70;99.90
47606;DHT22;55448;51.330;4.946;2022-07-29T06:47:55;16.80;99.90
47606;DHT22;55448;51.330;4.946;2022-07-29T06:50:20;17.00;99.90
47606;DHT22;55448;51.330;4.946;2022-07-29T06:52:47;17.30;99.90
47606;DHT22;55448;51.330;4.946;2022-07-29T06:55:14;17.40;99.90
47606;DHT22;55448;51.330;4.946;2022-07-29T06:57:41;17.50;99.90
47606;DHT22;55448;51.330;4.946;2022-07-29T07:00:08;17.60;99.90
47606;DHT22;55448;51.330;4.946;2022-07-29T07:02:34;17.70;99.90
47606;DHT22;55448;51.330;4.946;2022-07-29T07:05:01;17.80;99.90
47606;DHT22;55448;51.330;4.946;2022-07-29T07:07:28;17.50;99.90
47606;DHT22;55448;51.330;4.946;2022-07-29T07:09:53;17.40;99.90
47606;DHT22;55448;51.330;4.946;2022-07-29T07:12:19;17.50;99.90
47606;DHT22;55448;51.330;4.946;2022-07-29T07:14:45;17.70;99.90
47606;DHT22;55448;51.330;4.946;2022-07-29T07:17:10;17.70;99.90
47606;DHT22;55448;51.330;4.946;2022-07-29T07:19:36;17.90;99.90
47606;DHT22;55448;51.330;4.946;2022-07-29T07:22:02;17.80;99.90
47606;DHT22;55448;51.330;4.946;2022-07-29T07:24:27;18.10;99.90
47606;DHT22;55448;51.330;4.946;2022-07-29T07:26:53;18.40;99.90
47606;DHT22;55448;51.330;4.946;2022-07-29T07:29:19;18.10;99.90
47606;DHT22;55448;51.330;4.946;2022-07-29T07:31:44;18.30;99.90
47606;DHT22;55448;51.330;4.946;2022-07-29T07:34:10;18.50;99.90
47606;DHT22;55448;51.330;4.946;2022-07-29T07:36:36;18.50;99.90
47606;DHT22;55448;51.330;4.946;2022-07-29T07:39:02;18.60;99.90
47606;DHT22;55448;51.330;4.946;2022-07-29T07:41:28;18.80;99.90
47606;DHT22;55448;51.330;4.946;2022-07-29T07:43:54;19.10;99.90
47606;DHT22;55448;51.330;4.946;2022-07-29T07:46:20;19.20;99.90
47606;DHT22;55448;51.330;4.946;2022-07-29T07:48:45;19.00;99.90
47606;DHT22;55448;51.330;4.946;2022-07-29T07:51:11;19.10;99.90
47606;DHT22;55448;51.330;4.946;2022-07-29T07:53:37;19.00;99.90
47606;DHT22;55448;51.330;4.946;2022-07-29T07:56:07;19.30;99.90
47606;DHT22;55448;51.330;4.946;2022-07-29T07:58:33;19.30;99.90
47606;DHT22;55448;51.330;4.946;2022-07-29T08:01:00;19.50;99.90
47606;DHT22;55448;51.330;4.946;2022-07-29T08:03:26;19.60;99.90
47606;DHT22;55448;51.330;4.946;2022-07-29T08:05:51;19.60;99.90
47606;DHT22;55448;51.330;4.946;2022-07-29T08:08:19;19.60;99.90
47606;DHT22;55448;51.330;4.946;2022-07-29T08:10:45;19.90;99.90
47606;DHT22;55448;51.330;4.946;2022-07-29T08:13:25;20.10;98.90
47606;DHT22;55448;51.330;4.946;2022-07-29T08:15:56;20.10;98.70
47606;DHT22;55448;51.330;4.946;2022-07-29T08:18:43;20.10;98.90
47606;DHT22;55448;51.330;4.946;2022-07-29T08:21:10;20.60;98.50
47606;DHT22;55448;51.330;4.946;2022-07-29T08:23:35;20.60;98.80
47606;DHT22;55448;51.330;4.946;2022-07-29T08:26:08;20.80;98.70
47606;DHT22;55448;51.330;4.946;2022-07-29T08:28:41;20.40;98.50
47606;DHT22;55448;51.330;4.946;2022-07-29T08:31:10;20.30;98.80
47606;DHT22;55448;51.330;4.946;2022-07-29T08:33:35;20.30;98.70
47606;DHT22;55448;51.330;4.946;2022-07-29T08:36:01;20.40;99.20
47606;DHT22;55448;51.330;4.946;2022-07-29T08:38:27;20.50;98.00
47606;DHT22;55448;51.330;4.946;2022-07-29T08:40:53;20.60;97.40
47606;DHT22;55448;51.330;4.946;2022-07-29T08:43:19;20.60;97.70
47606;DHT22;55448;51.330;4.946;2022-07-29T08:45:48;20.40;98.20
47606;DHT22;55448;51.330;4.946;2022-07-29T08:48:18;20.60;97.50
47606;DHT22;55448;51.330;4.946;2022-07-29T08:50:47;21.00;97.70
47606;DHT22;55448;51.330;4.946;2022-07-29T08:53:16;21.40;97.20
47606;DHT22;55448;51.330;4.946;2022-07-29T08:55:50;22.00;95.60
47606;DHT22;55448;51.330;4.946;2022-07-29T08:58:17;22.20;94.80
47606;DHT22;55448;51.330;4.946;2022-07-29T09:00:50;22.20;94.60
47606;DHT22;55448;51.330;4.946;2022-07-29T09:03:19;22.40;94.00
47606;DHT22;55448;51.330;4.946;2022-07-29T09:05:46;22.40;94.20
47606;DHT22;55448;51.330;4.946;2022-07-29T09:08:13;22.20;93.80
47606;DHT22;55448;51.330;4.946;2022-07-29T09:10:39;22.80;93.90
47606;DHT22;55448;51.330;4.946;2022-07-29T09:13:05;22.80;93.40
47606;DHT22;55448;51.330;4.946;2022-07-29T09:15:31;23.10;93.20
47606;DHT22;55448;51.330;4.946;2022-07-29T09:17:57;23.60;91.60
47606;DHT22;55448;51.330;4.946;2022-07-29T09:20:24;24.20;90.00
47606;DHT22;55448;51.330;4.946;2022-07-29T09:22:51;24.20;90.10
47606;DHT22;55448;51.330;4.946;2022-07-29T09:25:38;24.20;89.60
47606;DHT22;55448;51.330;4.946;2022-07-29T09:28:13;24.70;87.80
47606;DHT22;55448;51.330;4.946;2022-07-29T09:30:59;24.80;86.10
47606;DHT22;55448;51.330;4.946;2022-07-29T09:33:32;25.20;86.10
47606;DHT22;55448;51.330;4.946;2022-07-29T09:36:09;25.20;85.80
47606;DHT22;55448;51.330;4.946;2022-07-29T09:38:36;25.20;86.50
47606;DHT22;55448;51.330;4.946;2022-07-29T09:41:05;25.30;83.80
47606;DHT22;55448;51.330;4.946;2022-07-29T09:43:30;25.20;82.00
47606;DHT22;55448;51.330;4.946;2022-07-29T09:46:09;24.90;83.70
47606;DHT22;55448;51.330;4.946;2022-07-29T09:48:35;24.70;84.30
47606;DHT22;55448;51.330;4.946;2022-07-29T09:51:01;24.50;85.40
47606;DHT22;55448;51.330;4.946;2022-07-29T09:53:34;24.00;86.80
47606;DHT22;55448;51.330;4.946;2022-07-29T09:55:59;24.70;84.80
47606;DHT22;55448;51.330;4.946;2022-07-29T09:58:26;25.00;84.10
47606;DHT22;55448;51.330;4.946;2022-07-29T10:00:53;25.30;80.90
47606;DHT22;55448;51.330;4.946;2022-07-29T10:03:21;25.60;79.00
47606;DHT22;55448;51.330;4.946;2022-07-29T10:06:07;26.20;78.50
47606;DHT22;55448;51.330;4.946;2022-07-29T10:08:33;26.50;78.10
47606;DHT22;55448;51.330;4.946;2022-07-29T10:11:11;26.00;79.70
47606;DHT22;55448;51.330;4.946;2022-07-29T10:13:38;26.40;78.00
47606;DHT22;55448;51.330;4.946;2022-07-29T10:16:05;26.50;78.90
47606;DHT22;55448;51.330;4.946;2022-07-29T10:18:32;26.60;79.00
47606;DHT22;55448;51.330;4.946;2022-07-29T10:20:58;26.60;77.70
47606;DHT22;55448;51.330;4.946;2022-07-29T10:23:30;26.30;78.40
47606;DHT22;55448;51.330;4.946;2022-07-29T10:25:56;26.50;77.50
47606;DHT22;55448;51.330;4.946;2022-07-29T10:28:22;26.70;77.30
47606;DHT22;55448;51.330;4.946;2022-07-29T10:30:50;26.90;77.10
47606;DHT22;55448;51.330;4.946;2022-07-29T10:33:33;27.00;76.60
47606;DHT22;55448;51.330;4.946;2022-07-29T10:46:38;27.50;75.90
47606;DHT22;55448;51.330;4.946;2022-07-29T10:49:13;27.50;75.10
47606;DHT22;55448;51.330;4.946;2022-07-29T10:52:04;27.60;73.00
47606;DHT22;55448;51.330;4.946;2022-07-29T10:54:36;27.50;73.90
47606;DHT22;55448;51.330;4.946;2022-07-29T10:57:35;27.30;75.80
47606;DHT22;55448;51.330;4.946;2022-07-29T11:05:06;27.20;74.60
47606;DHT22;55448;51.330;4.946;2022-07-29T11:07:34;27.40;75.50
47606;DHT22;55448;51.330;4.946;2022-07-29T11:15:12;27.60;73.40
47606;DHT22;55448;51.330;4.946;2022-07-29T11:20:31;27.40;73.30
47606;DHT22;55448;51.330;4.946;2022-07-29T11:22:58;27.40;72.90
47606;DHT22;55448;51.330;4.946;2022-07-29T11:25:24;27.60;72.90
47606;DHT22;55448;51.330;4.946;2022-07-29T11:27:52;28.10;71.50
47606;DHT22;55448;51.330;4.946;2022-07-29T11:30:18;27.70;71.80
47606;DHT22;55448;51.330;4.946;2022-07-29T11:32:45;27.70;72.90
47606;DHT22;55448;51.330;4.946;2022-07-29T11:35:21;27.90;72.00
47606;DHT22;55448;51.330;4.946;2022-07-29T11:38:23;28.10;71.20
47606;DHT22;55448;51.330;4.946;2022-07-29T11:43:54;27.50;72.60
47606;DHT22;55448;51.330;4.946;2022-07-29T11:46:49;27.60;71.90
47606;DHT22;55448;51.330;4.946;2022-07-29T11:49:20;27.40;70.70
47606;DHT22;55448;51.330;4.946;2022-07-29T11:51:57;27.10;71.90
47606;DHT22;55448;51.330;4.946;2022-07-29T11:54:42;27.20;70.90
47606;DHT22;55448;51.330;4.946;2022-07-29T11:57:08;27.60;70.70
47606;DHT22;55448;51.330;4.946;2022-07-29T11:59:41;26.90;70.20
47606;DHT22;55448;51.330;4.946;2022-07-29T12:02:08;26.80;71.50
47606;DHT22;55448;51.330;4.946;2022-07-29T12:04:47;27.30;72.60
47606;DHT22;55448;51.330;4.946;2022-07-29T12:07:13;27.40;72.30
47606;DHT22;55448;51.330;4.946;2022-07-29T12:09:39;27.90;69.90
47606;DHT22;55448;51.330;4.946;2022-07-29T12:12:05;28.40;70.20
47606;DHT22;55448;51.330;4.946;2022-07-29T12:14:32;28.90;68.70
47606;DHT22;55448;51.330;4.946;2022-07-29T12:16:59;29.20;68.80
47606;DHT22;55448;51.330;4.946;2022-07-29T12:19:26;29.00;66.60
47606;DHT22;55448;51.330;4.946;2022-07-29T12:21:53;28.60;68.00
47606;DHT22;55448;51.330;4.946;2022-07-29T12:24:20;28.20;67.70
47606;DHT22;55448;51.330;4.946;2022-07-29T12:27:04;28.00;68.60
47606;DHT22;55448;51.330;4.946;2022-07-29T12:29:30;28.30;69.10
47606;DHT22;55448;51.330;4.946;2022-07-29T12:31:55;28.50;68.10
47606;DHT22;55448;51.330;4.946;2022-07-29T12:34:24;28.50;68.30
47606;DHT22;55448;51.330;4.946;2022-07-29T12:36:52;28.00;67.50
47606;DHT22;55448;51.330;4.946;2022-07-29T12:39:18;28.00;69.00
47606;DHT22;55448;51.330;4.946;2022-07-29T12:41:44;28.30;67.40
47606;DHT22;55448;51.330;4.946;2022-07-29T12:44:10;28.10;67.90
47606;DHT22;55448;51.330;4.946;2022-07-29T12:46:36;28.20;70.60
47606;DHT22;55448;51.330;4.946;2022-07-29T12:49:03;27.70;70.00
47606;DHT22;55448;51.330;4.946;2022-07-29T12:51:35;27.70;70.70
47606;DHT22;55448;51.330;4.946;2022-07-29T12:56:29;27.70;67.70
47606;DHT22;55448;51.330;4.946;2022-07-29T12:58:55;28.20;68.30
47606;DHT22;55448;51.330;4.946;2022-07-29T13:01:21;28.40;66.10
47606;DHT22;55448;51.330;4.946;2022-07-29T13:03:54;28.40;66.00
47606;DHT22;55448;51.330;4.946;2022-07-29T13:09:00;28.90;62.80
47606;DHT22;55448;51.330;4.946;2022-07-29T13:11:30;28.30;62.40
47606;DHT22;55448;51.330;4.946;2022-07-29T13:13:56;28.40;63.80
47606;DHT22;55448;51.330;4.946;2022-07-29T13:16:21;28.10;62.50
47606;DHT22;55448;51.330;4.946;2022-07-29T13:18:47;28.10;63.90
47606;DHT22;55448;51.330;4.946;2022-07-29T13:21:15;28.80;62.10
47606;DHT22;55448;51.330;4.946;2022-07-29T13:23:41;28.90;64.50
47606;DHT22;55448;51.330;4.946;2022-07-29T13:26:08;28.50;63.40
47606;DHT22;55448;51.330;4.946;2022-07-29T13:28:34;29.00;63.00
47606;DHT22;55448;51.330;4.946;2022-07-29T13:31:00;29.50;60.90
47606;DHT22;55448;51.330;4.946;2022-07-29T13:33:26;29.40;60.60
47606;DHT22;55448;51.330;4.946;2022-07-29T13:35:51;29.00;61.10
47606;DHT22;55448;51.330;4.946;2022-07-29T13:38:17;29.10;60.90
47606;DHT22;55448;51.330;4.946;2022-07-29T13:40:43;29.60;59.30
47606;DHT22;55448;51.330;4.946;2022-07-29T13:43:10;29.40;59.40
47606;DHT22;55448;51.330;4.946;2022-07-29T13:45:36;29.30;59.80
47606;DHT22;55448;51.330;4.946;2022-07-29T13:48:02;29.60;59.10
47606;DHT22;55448;51.330;4.946;2022-07-29T13:50:27;30.00;57.80
47606;DHT22;55448;51.330;4.946;2022-07-29T13:52:53;29.80;59.30
47606;DHT22;55448;51.330;4.946;2022-07-29T13:55:19;29.50;59.10
47606;DHT22;55448;51.330;4.946;2022-07-29T13:57:45;29.20;59.50
47606;DHT22;55448;51.330;4.946;2022-07-29T14:00:11;29.10;60.60
47606;DHT22;55448;51.330;4.946;2022-07-29T14:02:37;29.60;58.70
47606;DHT22;55448;51.330;4.946;2022-07-29T14:05:05;29.70;59.40
47606;DHT22;55448;51.330;4.946;2022-07-29T14:07:30;30.40;57.20
47606;DHT22;55448;51.330;4.946;2022-07-29T14:09:56;29.90;55.60
47606;DHT22;55448;51.330;4.946;2022-07-29T14:12:22;28.90;57.60
47606;DHT22;55448;51.330;4.946;2022-07-29T14:14:48;28.60;57.80
47606;DHT22;55448;51.330;4.946;2022-07-29T14:17:15;28.20;57.70
47606;DHT22;55448;51.330;4.946;2022-07-29T14:19:40;28.10;58.50
47606;DHT22;55448;51.330;4.946;2022-07-29T14:22:08;28.50;57.30
47606;DHT22;55448;51.330;4.946;2022-07-29T14:24:34;29.40;56.00
47606;DHT22;55448;51.330;4.946;2022-07-29T14:27:00;29.80;55.40
47606;DHT22;55448;51.330;4.946;2022-07-29T14:29:26;31.10;53.20
47606;DHT22;55448;51.330;4.946;2022-07-29T14:31:52;31.20;51.50
47606;DHT22;55448;51.330;4.946;2022-07-29T14:34:17;30.30;52.60
47606;DHT22;55448;51.330;4.946;2022-07-29T14:36:43;30.40;53.10
47606;DHT22;55448;51.330;4.946;2022-07-29T14:39:09;31.40;51.50
47606;DHT22;55448;51.330;4.946;2022-07-29T14:41:35;31.10;52.30
47606;DHT22;55448;51.330;4.946;2022-07-29T14:44:00;30.30;53.20
47606;DHT22;55448;51.330;4.946;2022-07-29T14:46:27;29.70;53.00
47606;DHT22;55448;51.330;4.946;2022-07-29T14:48:53;28.20;56.00
47606;DHT22;55448;51.330;4.946;2022-07-29T14:51:19;27.50;58.10
47606;DHT22;55448;51.330;4.946;2022-07-29T14:53:45;28.00;57.30
47606;DHT22;55448;51.330;4.946;2022-07-29T14:56:11;28.70;55.40
47606;DHT22;55448;51.330;4.946;2022-07-29T14:58:37;29.00;54.50
47606;DHT22;55448;51.330;4.946;2022-07-29T15:01:02;29.40;52.80
47606;DHT22;55448;51.330;4.946;2022-07-29T15:03:28;30.00;52.80
47606;DHT22;55448;51.330;4.946;2022-07-29T15:05:54;30.80;52.30
47606;DHT22;55448;51.330;4.946;2022-07-29T15:08:20;31.10;51.70
47606;DHT22;55448;51.330;4.946;2022-07-29T15:10:46;30.60;52.30
47606;DHT22;55448;51.330;4.946;2022-07-29T15:13:11;30.00;54.00
47606;DHT22;55448;51.330;4.946;2022-07-29T15:15:37;29.40;53.60
47606;DHT22;55448;51.330;4.946;2022-07-29T15:18:03;28.90;52.80
47606;DHT22;55448;51.330;4.946;2022-07-29T15:20:29;28.60;53.90
47606;DHT22;55448;51.330;4.946;2022-07-29T15:22:55;28.70;53.80
47606;DHT22;55448;51.330;4.946;2022-07-29T15:25:22;28.40;54.30
47606;DHT22;55448;51.330;4.946;2022-07-29T15:27:48;27.90;54.50
47606;DHT22;55448;51.330;4.946;2022-07-29T15:30:14;27.80;55.20
47606;DHT22;55448;51.330;4.946;2022-07-29T15:32:45;28.40;55.30
47606;DHT22;55448;51.330;4.946;2022-07-29T15:35:11;28.30;55.80
47606;DHT22;55448;51.330;4.946;2022-07-29T15:37:38;27.60;55.90
47606;DHT22;55448;51.330;4.946;2022-07-29T15:40:05;27.40;56.50
47606;DHT22;55448;51.330;4.946;2022-07-29T15:42:31;27.50;54.80
47606;DHT22;55448;51.330;4.946;2022-07-29T15:44:57;27.50;56.50
47606;DHT22;55448;51.330;4.946;2022-07-29T15:47:22;28.10;55.10
47606;DHT22;55448;51.330;4.946;2022-07-29T15:49:48;28.50;54.40
47606;DHT22;55448;51.330;4.946;2022-07-29T15:52:18;28.00;54.70
47606;DHT22;55448;51.330;4.946;2022-07-29T15:54:44;27.40;55.70
47606;DHT22;55448;51.330;4.946;2022-07-29T15:57:10;27.50;55.60
47606;DHT22;55448;51.330;4.946;2022-07-29T15:59:36;27.60;55.40
47606;DHT22;55448;51.330;4.946;2022-07-29T16:02:03;27.80;55.30
47606;DHT22;55448;51.330;4.946;2022-07-29T16:04:29;27.70;55.70
47606;DHT22;55448;51.330;4.946;2022-07-29T16:06:55;28.20;55.00
47606;DHT22;55448;51.330;4.946;2022-07-29T16:09:20;29.30;53.00
47606;DHT22;55448;51.330;4.946;2022-07-29T16:11:46;28.90;52.70
47606;DHT22;55448;51.330;4.946;2022-07-29T16:14:15;28.30;54.50
47606;DHT22;55448;51.330;4.946;2022-07-29T16:16:42;28.20;55.00
47606;DHT22;55448;51.330;4.946;2022-07-29T16:19:08;28.10;54.10
47606;DHT22;55448;51.330;4.946;2022-07-29T16:21:35;28.00;54.80
47606;DHT22;55448;51.330;4.946;2022-07-29T16:24:02;27.40;55.40